createdAt,value
2018-09-05T00:00:01.318Z,11.72
2018-09-05T00:02:29.925Z,11.65
2018-09-05T00:04:58.515Z,11.69
2018-09-05T00:07:27.125Z,11.74
2018-09-05T00:09:55.686Z,11.80
2018-09-05T00:12:24.414Z,11.93
2018-09-05T00:14:52.990Z,12.01
2018-09-05T00:17:21.612Z,12.08
2018-09-05T00:19:50.190Z,12.03
2018-09-05T00:22:18.795Z,11.92
2018-09-05T00:24:47.413Z,11.71
2018-09-05T00:27:16.039Z,11.55
2018-09-05T00:29:44.612Z,11.47
2018-09-05T00:32:13.232Z,11.46
2018-09-05T00:34:41.789Z,11.44
2018-09-05T00:37:10.364Z,11.47
2018-09-05T00:39:38.945Z,11.54
2018-09-05T00:42:07.557Z,11.54
2018-09-05T00:44:36.146Z,11.52
2018-09-05T00:47:04.760Z,11.51
2018-09-05T00:49:33.340Z,11.51
2018-09-05T00:52:02.023Z,11.51
2018-09-05T00:54:30.594Z,11.43
2018-09-05T00:56:59.193Z,11.33
2018-09-05T00:59:27.800Z,11.32
2018-09-05T01:01:56.395Z,11.37
2018-09-05T01:04:24.965Z,11.43
2018-09-05T01:06:53.758Z,11.47
2018-09-05T01:09:22.350Z,11.47
2018-09-05T01:11:50.953Z,11.47
2018-09-05T01:14:19.529Z,11.42
2018-09-05T01:16:48.118Z,11.33
2018-09-05T01:19:16.709Z,11.33
2018-09-05T01:21:45.301Z,11.41
2018-09-05T01:24:13.930Z,11.46
2018-09-05T01:26:42.561Z,11.37
2018-09-05T01:29:11.133Z,11.27
2018-09-05T01:31:39.742Z,11.15
2018-09-05T01:34:08.373Z,11.15
2018-09-05T01:36:36.980Z,11.22
2018-09-05T01:39:07.413Z,11.26
2018-09-05T01:41:36.084Z,11.30
2018-09-05T01:44:04.680Z,11.31
2018-09-05T01:46:33.292Z,11.38
2018-09-05T01:49:01.884Z,11.46
2018-09-05T01:51:33.176Z,11.50
2018-09-05T01:54:02.710Z,11.54
2018-09-05T01:56:31.376Z,11.63
2018-09-05T01:58:59.980Z,11.71
2018-09-05T02:01:28.605Z,11.79
2018-09-05T02:03:57.181Z,11.85
2018-09-05T02:06:25.761Z,11.81
2018-09-05T02:08:54.397Z,11.68
2018-09-05T02:11:22.974Z,11.58
2018-09-05T02:13:51.580Z,11.48
2018-09-05T02:16:20.149Z,11.44
2018-09-05T02:18:48.750Z,11.38
2018-09-05T02:21:17.308Z,11.32
2018-09-05T02:23:45.902Z,11.24
2018-09-05T02:26:14.506Z,11.18
2018-09-05T02:28:43.108Z,11.14
2018-09-05T02:31:11.716Z,11.10
2018-09-05T02:33:40.289Z,11.04
2018-09-05T02:36:08.875Z,11.02
2018-09-05T02:38:37.468Z,11.09
2018-09-05T02:41:06.146Z,11.20
2018-09-05T02:43:40.026Z,11.28
2018-09-05T02:46:08.599Z,11.37
2018-09-05T02:48:37.254Z,11.46
2018-09-05T02:51:05.860Z,11.55
2018-09-05T02:53:34.497Z,11.68
2018-09-05T02:56:04.138Z,11.82
2018-09-05T02:58:34.157Z,11.97
2018-09-05T03:01:02.721Z,12.07
2018-09-05T03:03:31.306Z,12.10
2018-09-05T03:05:59.878Z,12.12
2018-09-05T03:08:28.473Z,12.18
2018-09-05T03:10:57.054Z,12.28
2018-09-05T03:13:25.629Z,12.37
2018-09-05T03:15:54.219Z,12.44
2018-09-05T03:18:22.805Z,12.50
2018-09-05T03:20:51.378Z,12.55
2018-09-05T03:23:20.000Z,12.61
2018-09-05T03:25:48.608Z,12.68
2018-09-05T03:28:17.224Z,12.75
2018-09-05T03:30:45.837Z,12.79
2018-09-05T03:33:14.476Z,12.81
2018-09-05T03:35:43.082Z,12.76
2018-09-05T03:38:11.699Z,12.78
2018-09-05T03:40:40.282Z,12.81
2018-09-05T03:43:08.899Z,12.85
2018-09-05T03:45:37.500Z,12.87
2018-09-05T03:48:06.175Z,12.90
2018-09-05T03:50:34.774Z,12.91
2018-09-05T03:53:03.565Z,12.94
2018-09-05T03:55:32.172Z,12.98
2018-09-05T03:58:00.804Z,13.01
2018-09-05T04:00:32.569Z,13.05
2018-09-05T04:03:01.757Z,13.10
2018-09-05T04:05:30.412Z,13.15
2018-09-05T04:07:59.008Z,13.20
2018-09-05T04:10:27.638Z,13.24
2018-09-05T04:12:56.235Z,13.28
2018-09-05T04:15:24.890Z,13.31
2018-09-05T04:17:53.464Z,13.33
2018-09-05T04:20:22.097Z,13.37
2018-09-05T04:22:50.674Z,13.40
2018-09-05T04:25:19.286Z,13.45
2018-09-05T04:27:47.855Z,13.47
2018-09-05T04:30:16.520Z,13.50
2018-09-05T04:32:45.082Z,13.54
2018-09-05T04:35:13.686Z,13.57
2018-09-05T04:37:42.244Z,13.59
2018-09-05T04:40:10.947Z,13.60
2018-09-05T04:42:39.571Z,13.63
2018-09-05T04:45:08.220Z,13.67
2018-09-05T04:47:37.111Z,13.71
2018-09-05T04:50:05.825Z,13.73
2018-09-05T04:52:34.428Z,13.78
2018-09-05T04:55:03.036Z,13.83
2018-09-05T04:57:31.617Z,13.87
2018-09-05T05:00:00.225Z,13.91
2018-09-05T05:02:28.853Z,13.98
2018-09-05T05:04:57.486Z,14.04
2018-09-05T05:07:26.039Z,14.09
2018-09-05T05:09:54.635Z,14.15
2018-09-05T05:12:23.226Z,14.19
2018-09-05T05:14:51.838Z,14.23
2018-09-05T05:17:20.457Z,14.28
2018-09-05T05:19:49.040Z,14.35
2018-09-05T05:22:17.618Z,14.40
2018-09-05T05:24:46.219Z,14.46
2018-09-05T05:27:14.819Z,14.48
2018-09-05T05:29:43.409Z,14.53
2018-09-05T05:32:11.981Z,14.49
2018-09-05T05:34:40.611Z,14.49
2018-09-05T05:37:09.185Z,14.56
2018-09-05T05:39:37.807Z,14.60
2018-09-05T05:42:06.439Z,14.65
2018-09-05T05:44:35.067Z,14.69
2018-09-05T05:47:03.689Z,14.70
2018-09-05T05:49:32.371Z,14.74
2018-09-05T05:52:00.937Z,14.77
2018-09-05T05:54:29.611Z,14.85
2018-09-05T05:56:58.187Z,14.92
2018-09-05T05:59:26.780Z,15.02
2018-09-05T06:01:55.356Z,15.04
2018-09-05T06:04:23.951Z,15.06
2018-09-05T06:06:52.536Z,15.11
2018-09-05T06:09:21.118Z,15.17
2018-09-05T06:11:49.761Z,15.25
2018-09-05T06:14:18.338Z,15.33
2018-09-05T06:16:46.930Z,15.36
2018-09-05T06:19:15.478Z,15.46
2018-09-05T06:21:44.114Z,15.53
2018-09-05T06:24:12.708Z,15.64
2018-09-05T06:26:41.347Z,15.71
2018-09-05T06:29:11.491Z,15.77
2018-09-05T06:31:41.739Z,15.84
2018-09-05T06:34:10.431Z,15.89
2018-09-05T06:36:39.071Z,15.95
2018-09-05T06:39:09.791Z,15.99
2018-09-05T06:41:38.691Z,16.04
2018-09-05T06:44:07.586Z,16.05
2018-09-05T06:46:36.193Z,16.05
2018-09-05T06:49:04.776Z,16.03
2018-09-05T06:51:33.381Z,16.05
2018-09-05T06:54:01.982Z,16.09
2018-09-05T06:56:30.612Z,16.15
2018-09-05T06:58:59.253Z,16.22
2018-09-05T07:01:27.869Z,16.24
2018-09-05T07:03:56.474Z,16.25
2018-09-05T07:06:25.092Z,16.30
2018-09-05T07:08:53.681Z,16.25
2018-09-05T07:11:22.316Z,16.18
2018-09-05T07:13:50.931Z,16.16
2018-09-05T07:16:19.565Z,16.29
2018-09-05T07:18:48.189Z,16.37
2018-09-05T07:21:17.050Z,16.46
2018-09-05T07:23:45.602Z,16.61
2018-09-05T07:26:14.244Z,16.77
2018-09-05T07:28:42.842Z,16.92
2018-09-05T07:31:11.462Z,17.12
2018-09-05T07:33:40.054Z,17.30
2018-09-05T07:36:08.664Z,17.34
2018-09-05T07:38:37.257Z,17.49
2018-09-05T07:41:08.041Z,17.66
2018-09-05T07:43:38.262Z,17.78
2018-09-05T07:46:10.092Z,17.96
2018-09-05T07:48:38.738Z,18.01
2018-09-05T07:51:07.424Z,18.10
2018-09-05T07:53:35.994Z,17.97
2018-09-05T07:56:04.628Z,17.96
2018-09-05T07:58:33.225Z,17.85
2018-09-05T08:01:01.851Z,17.81
2018-09-05T08:03:30.498Z,17.73
2018-09-05T08:05:59.072Z,17.57
2018-09-05T08:08:27.741Z,17.65
2018-09-05T08:10:56.335Z,17.82
2018-09-05T08:13:24.995Z,18.01
2018-09-05T08:15:53.588Z,18.11
2018-09-05T08:18:22.190Z,18.21
2018-09-05T08:20:50.847Z,18.40
2018-09-05T08:23:19.455Z,18.53
2018-09-05T08:25:48.062Z,18.75
2018-09-05T08:28:16.663Z,18.76
2018-09-05T08:30:45.235Z,18.80
2018-09-05T08:33:13.840Z,18.96
2018-09-05T08:35:42.762Z,18.95
2018-09-05T08:38:11.221Z,18.83
2018-09-05T08:40:39.712Z,18.81
2018-09-05T08:43:08.334Z,18.84
2018-09-05T08:45:37.027Z,19.31
2018-09-05T08:48:05.688Z,19.89
2018-09-05T08:50:34.289Z,20.42
2018-09-05T08:53:02.895Z,20.96
2018-09-05T08:55:31.518Z,21.27
2018-09-05T08:58:00.096Z,21.56
2018-09-05T09:00:28.722Z,21.44
2018-09-05T09:02:57.308Z,21.08
2018-09-05T09:05:25.897Z,20.84
2018-09-05T09:07:54.522Z,20.55
2018-09-05T09:10:23.150Z,20.40
2018-09-05T09:12:51.785Z,20.26
2018-09-05T09:15:20.371Z,20.21
2018-09-05T09:17:48.965Z,20.36
2018-09-05T09:20:17.534Z,20.42
2018-09-05T09:22:46.153Z,20.83
2018-09-05T09:25:14.757Z,21.04
2018-09-05T09:27:43.458Z,20.86
2018-09-05T09:30:12.038Z,20.63
2018-09-05T09:32:40.661Z,20.38
2018-09-05T09:35:09.246Z,20.23
2018-09-05T09:37:37.842Z,19.98
2018-09-05T09:40:06.408Z,19.89
2018-09-05T09:42:35.017Z,19.96
2018-09-05T09:45:03.603Z,20.44
2018-09-05T09:47:32.207Z,21.26
2018-09-05T09:50:00.794Z,21.47
2018-09-05T09:52:29.389Z,21.50
2018-09-05T09:54:57.993Z,21.65
2018-09-05T09:57:26.613Z,21.96
2018-09-05T09:59:55.205Z,22.10
2018-09-05T10:02:28.931Z,22.38
2018-09-05T10:05:02.740Z,22.35
2018-09-05T10:07:36.600Z,22.24
2018-09-05T10:10:10.677Z,22.28
2018-09-05T10:12:48.310Z,22.28
2018-09-05T10:15:22.163Z,22.96
2018-09-05T10:17:56.040Z,23.60
2018-09-05T10:20:24.637Z,23.86
2018-09-05T10:22:53.249Z,23.82
2018-09-05T10:25:21.868Z,23.78
2018-09-05T10:27:50.430Z,23.71
2018-09-05T10:30:19.003Z,23.41
2018-09-05T10:32:47.607Z,22.90
2018-09-05T10:35:16.188Z,22.43
2018-09-05T10:37:44.774Z,22.12
2018-09-05T10:40:13.385Z,22.56
2018-09-05T10:42:41.963Z,22.78
2018-09-05T10:45:10.544Z,22.83
2018-09-05T10:47:39.106Z,23.14
2018-09-05T10:50:07.685Z,23.39
2018-09-05T10:52:36.279Z,23.65
2018-09-05T10:55:04.950Z,23.58
2018-09-05T10:57:33.558Z,23.20
2018-09-05T11:00:02.151Z,23.29
2018-09-05T11:02:30.717Z,23.46
2018-09-05T11:04:59.306Z,23.71
2018-09-05T11:07:27.896Z,23.76
2018-09-05T11:09:56.468Z,23.38
2018-09-05T11:12:25.052Z,23.30
2018-09-05T11:14:53.632Z,23.45
2018-09-05T11:17:22.194Z,23.92
2018-09-05T11:19:50.813Z,24.18
2018-09-05T11:22:19.365Z,24.40
2018-09-05T11:24:47.947Z,24.19
2018-09-05T11:27:16.529Z,24.19
2018-09-05T11:29:45.093Z,24.26
2018-09-05T11:32:13.656Z,24.01
2018-09-05T11:34:42.227Z,24.22
2018-09-05T11:37:10.786Z,24.14
2018-09-05T11:39:39.373Z,24.09
2018-09-05T11:42:07.948Z,23.89
2018-09-05T11:44:36.541Z,23.90
2018-09-05T11:47:05.116Z,24.15
2018-09-05T11:49:33.691Z,24.26
2018-09-05T11:52:02.244Z,24.10
2018-09-05T11:54:30.838Z,23.93
2018-09-05T11:56:59.397Z,23.85
2018-09-05T11:59:27.981Z,23.81
2018-09-05T12:01:56.605Z,24.16
2018-09-05T12:04:25.210Z,24.50
2018-09-05T12:06:53.886Z,24.88
2018-09-05T12:09:22.461Z,25.34
2018-09-05T12:11:51.050Z,25.73
2018-09-05T12:14:19.635Z,25.85
2018-09-05T12:16:48.286Z,26.04
2018-09-05T12:19:16.889Z,25.70
2018-09-05T12:21:45.486Z,25.19
2018-09-05T12:24:14.095Z,24.97
2018-09-05T12:26:42.747Z,24.84
2018-09-05T12:29:12.860Z,24.56
2018-09-05T12:31:42.262Z,24.47
2018-09-05T12:34:11.347Z,24.65
2018-09-05T12:37:10.709Z,24.93
2018-09-05T12:39:39.313Z,25.11
2018-09-05T12:42:07.909Z,24.96
2018-09-05T12:44:36.605Z,24.60
2018-09-05T12:47:05.212Z,24.19
2018-09-05T12:49:33.815Z,24.18
2018-09-05T12:52:02.377Z,24.52
2018-09-05T12:54:31.027Z,24.90
2018-09-05T12:56:59.606Z,24.97
2018-09-05T12:59:28.182Z,24.60
2018-09-05T13:01:56.756Z,24.30
2018-09-05T13:04:25.338Z,24.25
2018-09-05T13:06:54.013Z,24.51
2018-09-05T13:09:22.678Z,24.83
2018-09-05T13:11:51.269Z,25.09
2018-09-05T13:14:19.967Z,25.20
2018-09-05T13:16:48.535Z,24.76
2018-09-05T13:19:17.108Z,24.67
2018-09-05T13:21:45.718Z,24.91
2018-09-05T13:24:14.376Z,25.21
2018-09-05T13:26:43.069Z,25.39
2018-09-05T13:29:11.624Z,25.77
2018-09-05T13:31:40.212Z,26.03
2018-09-05T13:34:08.803Z,26.20
2018-09-05T13:36:37.413Z,26.02
2018-09-05T13:39:07.562Z,25.58
2018-09-05T13:41:36.216Z,24.99
2018-09-05T13:44:04.798Z,24.91
2018-09-05T13:46:33.377Z,25.08
2018-09-05T13:49:01.937Z,25.30
2018-09-05T13:51:30.528Z,25.49
2018-09-05T13:53:59.089Z,25.60
2018-09-05T13:56:27.670Z,25.80
2018-09-05T13:58:56.270Z,25.75
2018-09-05T14:01:24.862Z,25.43
2018-09-05T14:03:53.442Z,24.77
2018-09-05T14:06:22.037Z,24.30
2018-09-05T14:08:50.586Z,23.95
2018-09-05T14:11:19.181Z,23.66
2018-09-05T14:13:47.722Z,23.44
2018-09-05T14:16:16.304Z,23.26
2018-09-05T14:18:44.892Z,23.17
2018-09-05T14:21:13.489Z,23.52
2018-09-05T14:23:42.092Z,23.98
2018-09-05T14:26:10.699Z,24.45
2018-09-05T14:28:39.274Z,24.80
2018-09-05T14:31:07.929Z,25.02
2018-09-05T14:33:36.566Z,25.12
2018-09-05T14:36:05.167Z,25.25
2018-09-05T14:38:33.762Z,25.26
2018-09-05T14:41:02.382Z,25.33
2018-09-05T14:43:30.937Z,25.19
2018-09-05T14:45:59.525Z,25.24
2018-09-05T14:48:28.111Z,25.20
2018-09-05T14:50:56.741Z,25.12
2018-09-05T14:53:25.317Z,25.04
2018-09-05T14:55:53.894Z,25.09
2018-09-05T14:58:22.518Z,25.03
2018-09-05T15:00:51.110Z,25.05
2018-09-05T15:03:19.698Z,24.78
2018-09-05T15:05:48.297Z,24.80
2018-09-05T15:08:16.872Z,24.94
2018-09-05T15:10:45.534Z,25.04
2018-09-05T15:13:14.125Z,24.85
2018-09-05T15:15:42.714Z,24.63
2018-09-05T15:18:11.309Z,24.61
2018-09-05T15:20:39.935Z,24.67
2018-09-05T15:23:08.628Z,24.70
2018-09-05T15:25:37.347Z,24.67
2018-09-05T15:28:05.963Z,24.67
2018-09-05T15:30:34.554Z,24.71
2018-09-05T15:33:03.157Z,24.77
2018-09-05T15:35:31.841Z,24.82
2018-09-05T15:38:00.426Z,24.58
2018-09-05T15:40:28.993Z,24.40
2018-09-05T15:42:57.684Z,24.37
2018-09-05T15:45:26.862Z,24.47
2018-09-05T15:47:55.491Z,24.59
2018-09-05T15:50:24.224Z,24.57
2018-09-05T15:52:52.793Z,24.56
2018-09-05T15:55:21.377Z,24.54
2018-09-05T15:57:50.025Z,24.58
2018-09-05T16:00:18.613Z,24.42
2018-09-05T16:02:47.210Z,24.36
2018-09-05T16:05:15.792Z,24.46
2018-09-05T16:07:44.386Z,24.38
2018-09-05T16:10:12.957Z,24.12
2018-09-05T16:12:41.562Z,24.07
2018-09-05T16:15:10.164Z,24.01
2018-09-05T16:17:38.769Z,23.92
2018-09-05T16:20:07.758Z,23.75
2018-09-05T16:22:36.369Z,23.71
2018-09-05T16:25:05.057Z,23.74
2018-09-05T16:27:33.705Z,23.68
2018-09-05T16:30:02.341Z,23.55
2018-09-05T16:32:30.948Z,23.33
2018-09-05T16:34:59.519Z,23.11
2018-09-05T16:37:28.122Z,22.92
2018-09-05T16:39:56.683Z,22.76
2018-09-05T16:42:25.258Z,22.57
2018-09-05T16:44:53.865Z,22.38
2018-09-05T16:47:22.472Z,22.38
2018-09-05T16:49:51.451Z,22.38
2018-09-05T16:52:20.133Z,22.41
2018-09-05T16:54:48.723Z,22.44
2018-09-05T16:57:17.326Z,22.49
2018-09-05T16:59:45.878Z,22.47
2018-09-05T17:02:14.470Z,22.45
2018-09-05T17:04:43.037Z,22.43
2018-09-05T17:07:11.650Z,22.34
2018-09-05T17:09:40.211Z,22.22
2018-09-05T17:12:08.977Z,22.11
2018-09-05T17:14:37.541Z,22.05
2018-09-05T17:17:06.158Z,21.94
2018-09-05T17:19:34.721Z,21.85
2018-09-05T17:22:03.401Z,21.77
2018-09-05T17:24:32.181Z,21.66
2018-09-05T17:27:00.855Z,21.53
2018-09-05T17:29:29.424Z,21.40
2018-09-05T17:31:58.008Z,21.19
2018-09-05T17:34:26.722Z,21.07
2018-09-05T17:36:55.282Z,20.92
2018-09-05T17:39:23.892Z,20.78
2018-09-05T17:41:52.538Z,20.66
2018-09-05T17:44:21.129Z,20.54
2018-09-05T17:46:49.709Z,20.37
2018-09-05T17:49:18.308Z,20.25
2018-09-05T17:51:46.890Z,20.11
2018-09-05T17:54:15.581Z,19.95
2018-09-05T17:56:44.162Z,19.75
2018-09-05T17:59:12.793Z,19.62
2018-09-05T18:01:41.439Z,19.51
2018-09-05T18:04:10.061Z,19.42
2018-09-05T18:06:38.696Z,19.32
2018-09-05T18:09:09.002Z,19.26
2018-09-05T18:11:37.578Z,19.16
2018-09-05T18:14:06.213Z,19.08
2018-09-05T18:16:34.824Z,18.97
2018-09-05T18:19:03.451Z,18.89
2018-09-05T18:21:32.035Z,18.82
2018-09-05T18:24:00.636Z,18.71
2018-09-05T18:26:29.221Z,18.60
2018-09-05T18:28:57.806Z,18.48
2018-09-05T18:31:26.374Z,18.35
2018-09-05T18:33:54.975Z,18.28
2018-09-05T18:36:23.645Z,18.16
2018-09-05T18:38:52.396Z,18.09
2018-09-05T18:41:21.234Z,18.02
2018-09-05T18:43:50.147Z,17.99
2018-09-05T18:46:18.747Z,17.93
2018-09-05T18:48:47.331Z,17.83
2018-09-05T18:51:15.902Z,17.81
2018-09-05T18:53:44.489Z,17.72
2018-09-05T18:56:13.108Z,17.53
2018-09-05T18:58:41.756Z,17.47
2018-09-05T19:01:10.333Z,17.41
2018-09-05T19:03:38.919Z,17.33
2018-09-05T19:06:07.486Z,17.29
2018-09-05T19:08:36.077Z,17.27
2018-09-05T19:11:04.672Z,17.22
2018-09-05T19:13:33.278Z,17.18
2018-09-05T19:16:01.847Z,17.14
2018-09-05T19:18:30.457Z,17.07
2018-09-05T19:20:59.034Z,17.06
2018-09-05T19:23:27.625Z,17.10
2018-09-05T19:25:56.205Z,17.15
2018-09-05T19:28:24.789Z,17.17
2018-09-05T19:30:53.364Z,17.16
2018-09-05T19:33:21.933Z,17.11
2018-09-05T19:35:50.496Z,17.11
2018-09-05T19:38:19.120Z,17.11
2018-09-05T19:40:47.792Z,17.11
2018-09-05T19:43:16.403Z,17.09
2018-09-05T19:45:44.983Z,17.09
2018-09-05T19:48:13.578Z,17.10
2018-09-05T19:50:42.209Z,17.08
2018-09-05T19:53:10.773Z,17.07
2018-09-05T19:55:39.394Z,17.08
2018-09-05T19:58:07.987Z,17.07
2018-09-05T20:00:36.631Z,17.04
2018-09-05T20:03:09.390Z,17.01
2018-09-05T20:05:38.072Z,16.97
2018-09-05T20:08:07.833Z,16.90
2018-09-05T20:10:40.247Z,16.83
2018-09-05T20:13:11.741Z,16.81
2018-09-05T20:15:43.054Z,16.79
2018-09-05T20:18:22.780Z,16.78
2018-09-05T20:20:54.414Z,16.71
2018-09-05T20:23:26.045Z,16.68
2018-09-05T20:26:00.930Z,16.62
2018-09-05T20:28:30.964Z,16.58
2018-09-05T20:31:06.829Z,16.55
2018-09-05T20:33:41.707Z,16.52
2018-09-05T20:36:11.773Z,16.54
2018-09-05T20:38:41.664Z,16.54
2018-09-05T20:41:11.656Z,16.56
2018-09-05T20:43:41.645Z,16.58
2018-09-05T20:46:12.480Z,16.57
2018-09-05T20:48:43.773Z,16.55
2018-09-05T20:51:13.156Z,16.54
2018-09-05T20:53:42.488Z,16.52
2018-09-05T20:56:12.160Z,16.48
2018-09-05T20:58:44.227Z,16.48
2018-09-05T21:01:17.107Z,16.49
2018-09-05T21:03:47.433Z,16.49
2018-09-05T21:06:17.750Z,16.48
2018-09-05T21:08:48.229Z,16.44
2018-09-05T21:11:18.003Z,16.38
2018-09-05T21:13:54.344Z,16.33
2018-09-05T21:16:24.013Z,16.30
2018-09-05T21:18:54.630Z,16.23
2018-09-05T21:21:24.863Z,16.19
2018-09-05T21:23:53.557Z,16.18
2018-09-05T21:26:28.334Z,16.15
2018-09-05T21:28:58.066Z,16.14
2018-09-05T21:31:31.259Z,16.09
2018-09-05T21:34:01.580Z,16.05
2018-09-05T21:36:31.909Z,15.99
2018-09-05T21:39:09.363Z,15.94
2018-09-05T21:41:40.478Z,15.88
2018-09-05T21:44:17.373Z,15.86
2018-09-05T21:46:51.610Z,15.84
2018-09-05T21:49:21.724Z,15.81
2018-09-05T21:51:55.313Z,15.79
2018-09-05T21:54:25.663Z,15.75
2018-09-05T21:56:56.595Z,15.69
2018-09-05T21:59:28.216Z,15.62
2018-09-05T22:01:58.635Z,15.60
2018-09-05T22:04:29.289Z,15.56
2018-09-05T22:06:59.933Z,15.56
2018-09-05T22:09:30.314Z,15.47
2018-09-05T22:12:00.298Z,15.43
2018-09-05T22:14:30.037Z,15.41
2018-09-05T22:17:00.102Z,15.40
2018-09-05T22:19:35.505Z,15.40
2018-09-05T22:22:06.202Z,15.39
2018-09-05T22:24:39.822Z,15.38
2018-09-05T22:27:10.076Z,15.35
2018-09-05T22:29:41.402Z,15.32
2018-09-05T22:32:12.082Z,15.29
2018-09-05T22:34:43.183Z,15.25
2018-09-05T22:37:15.048Z,15.24
2018-09-05T22:39:53.079Z,15.21
2018-09-05T22:45:13.228Z,15.19
2018-09-05T22:48:58.336Z,15.15
2018-09-05T22:52:14.479Z,15.10
2018-09-05T22:55:25.962Z,15.02
2018-09-05T22:58:34.678Z,15.00
2018-09-05T23:01:15.843Z,14.97
2018-09-05T23:03:55.872Z,14.91
2018-09-05T23:07:36.974Z,14.86
2018-09-05T23:10:18.728Z,14.85
2018-09-05T23:12:59.044Z,14.82
2018-09-05T23:15:39.235Z,14.81
2018-09-05T23:19:41.139Z,14.83
2018-09-05T23:22:12.561Z,14.79
2018-09-05T23:24:48.780Z,14.80
2018-09-05T23:27:19.571Z,14.80
2018-09-05T23:29:49.255Z,14.77
2018-09-05T23:32:20.600Z,14.73
2018-09-05T23:34:50.214Z,14.71
2018-09-05T23:37:23.292Z,14.69
2018-09-05T23:39:54.300Z,14.68
2018-09-05T23:42:25.024Z,14.71
2018-09-05T23:45:03.975Z,14.66
2018-09-05T23:47:35.472Z,14.64
2018-09-05T23:50:13.116Z,14.60
2018-09-05T23:52:42.797Z,14.56
2018-09-05T23:55:13.824Z,14.52
2018-09-05T23:57:44.758Z,14.47
